Etusivu
METAR-TAF:

METAR-TAF

Lentoasemat :

Winchester, Tennessee, Yhdysvallat

Leveyspiiri: 35-10-39N, Pituuspiiri: 086-03-58W, korkeus merenpinnasta: 298 m

Tämänhetkinen sää

Tämä raportti tehtiin 17 minuuttia sitten, kello 14.55 UTC
Tuuli 8 kn kaakosta
Lämpötila 17°C
Kosteus 59%
Ilmanpaine 1013 hPa
Näkyvyys: 16.1 km
Pilvistä 4600 ft:n korkeudessa

METAR: KBGF 191455Z AUTO 13008KT 10SM OVC046 17/09 A2991 RMK A01

Aika: 10:12 (15:12 UTC)


TAF: puuttuu

Säähavainnot ja -ennusteet yli 4000 lentoasemalta (METAR- ja TAF-raportit).

Käytössä olevat sääasemat on merkitty karttaan keltaisilla ja punaisilla pisteillä.

Aseta hiiri pisteen päälle nähdäksesi sääaseman nimen.

Klikkaa sitten nähdäksesi säähavainnot ja -ennusteet.

Kartan vaihtaminen: klikkaa mustalla rastilla varustettuja vihreitä pisteitä, niin voit zoomata sisään; viivalla varustettua vihreää pistettä, niin voit zoomata ulos tai vihreitä nuolia, niin pääset viereisille kartoille.


METAR-TAF: